Time;durP1;ratioP1;P1;durP2;ratioP2;P2;SDS_P1;SDS_P2;PMS_P1;PMS_P2;Temp;Humidity;BMP_temperature;BMP_pressure;BME280_temperature;BME280_humidity;BME280_pressure;Samples;Min_cycle;Max_cycle;Signal;HPM_P1;HPM_P2
2023/01/05 00:01:03;;;;;;;;;;;9.40;99.90;;;;;;4970816;28;206875;-70
2023/01/05 00:03:29;;;;;;;;;;;9.40;99.90;;;;;;5019436;28;19929;-72
2023/01/05 00:06:02;;;;;;;;;;;9.40;99.90;;;;;;4981619;28;209993;-72
2023/01/05 00:08:28;;;;;;;;;;;9.40;99.90;;;;;;4989972;28;20305;-70
2023/01/05 00:24:38;;;;;;;;;;;9.40;99.90;;;;;;5015664;28;20426;-70
2023/01/05 00:27:04;;;;;;;;;;;9.40;99.90;;;;;;4961131;28;206985;-71
2023/01/05 00:29:30;;;;;;;;;;;9.40;99.90;;;;;;5013001;28;19925;-69
2023/01/05 00:31:56;;;;;;;;;;;9.40;99.90;;;;;;4962641;28;27628;-72
2023/01/05 00:34:22;;;;;;;;;;;9.40;99.90;;;;;;5026327;28;20742;-71
2023/01/05 00:36:48;;;;;;;;;;;9.40;99.90;;;;;;4974490;28;207840;-70
2023/01/05 00:39:14;;;;;;;;;;;9.40;99.90;;;;;;5030352;28;19929;-71
2023/01/05 00:41:40;;;;;;;;;;;9.30;99.90;;;;;;4975082;28;206306;-70
2023/01/05 00:44:06;;;;;;;;;;;9.30;99.90;;;;;;5014236;28;19936;-71
2023/01/05 00:46:32;;;;;;;;;;;9.30;99.90;;;;;;4962070;28;206951;-71
2023/01/05 00:48:58;;;;;;;;;;;9.30;99.90;;;;;;5021915;28;19944;-71
2023/01/05 00:51:23;;;;;;;;;;;9.30;99.90;;;;;;4968915;28;67421;-70
2023/01/05 00:53:49;;;;;;;;;;;9.30;99.90;;;;;;5020660;28;19925;-70
2023/01/05 00:56:15;;;;;;;;;;;9.30;99.90;;;;;;4975714;28;206747;-70
2023/01/05 00:58:41;;;;;;;;;;;9.40;99.90;;;;;;5020884;28;19921;-71
2023/01/05 01:01:08;;;;;;;;;;;9.40;99.90;;;;;;4973824;28;207206;-72
2023/01/05 01:03:34;;;;;;;;;;;9.40;99.90;;;;;;5029184;28;19931;-70
2023/01/05 01:06:00;;;;;;;;;;;9.40;99.90;;;;;;4980543;28;206176;-71
2023/01/05 01:08:26;;;;;;;;;;;9.40;99.90;;;;;;5025784;28;19964;-69
2023/01/05 01:10:52;;;;;;;;;;;9.40;99.90;;;;;;4980501;28;207993;-71
2023/01/05 01:13:17;;;;;;;;;;;9.40;99.90;;;;;;5028985;28;19921;-70
2023/01/05 01:15:44;;;;;;;;;;;9.50;99.90;;;;;;4991860;28;209901;-70
2023/01/05 01:18:10;;;;;;;;;;;9.50;99.90;;;;;;5047078;28;19936;-69
2023/01/05 01:20:38;;;;;;;;;;;9.50;99.90;;;;;;4999384;28;207942;-70
2023/01/05 01:23:04;;;;;;;;;;;9.60;99.90;;;;;;5038049;28;19932;-70
2023/01/05 01:25:30;;;;;;;;;;;9.60;99.90;;;;;;4983356;28;209728;-70
2023/01/05 01:27:56;;;;;;;;;;;9.60;99.90;;;;;;5035859;28;19925;-70
2023/01/05 01:30:22;;;;;;;;;;;9.60;99.90;;;;;;5008656;28;211355;-69
2023/01/05 01:32:48;;;;;;;;;;;9.60;99.90;;;;;;4994160;28;19931;-70
2023/01/05 01:35:13;;;;;;;;;;;9.60;99.90;;;;;;5019158;28;19927;-71
2023/01/05 01:37:39;;;;;;;;;;;9.60;99.90;;;;;;4961658;28;264550;-70
2023/01/05 01:40:06;;;;;;;;;;;9.70;99.90;;;;;;5023100;28;19981;-70
2023/01/05 01:42:32;;;;;;;;;;;9.70;99.90;;;;;;4943054;28;132996;-69
2023/01/05 01:44:59;;;;;;;;;;;9.80;99.90;;;;;;5037575;28;19921;-70
2023/01/05 01:47:46;;;;;;;;;;;9.70;99.90;;;;;;4958109;28;207805;-70
2023/01/05 01:50:14;;;;;;;;;;;9.80;99.90;;;;;;5035589;28;20374;-70
2023/01/05 01:52:40;;;;;;;;;;;9.80;99.90;;;;;;4954977;28;217372;-70
2023/01/05 01:55:06;;;;;;;;;;;9.80;99.90;;;;;;5016817;28;19925;-70
2023/01/05 01:57:33;;;;;;;;;;;9.70;99.90;;;;;;4965324;28;213424;-70
2023/01/05 02:00:00;;;;;;;;;;;9.70;99.90;;;;;;5030807;28;19929;-69
2023/01/05 02:02:27;;;;;;;;;;;9.80;99.90;;;;;;4902659;28;104814;-71
2023/01/05 02:04:54;;;;;;;;;;;9.70;99.90;;;;;;5028065;28;19936;-69
2023/01/05 02:07:23;;;;;;;;;;;9.80;99.90;;;;;;4941613;28;211658;-71
2023/01/05 02:09:49;;;;;;;;;;;9.80;99.90;;;;;;5034795;28;19921;-70
2023/01/05 02:12:38;;;;;;;;;;;9.80;99.90;;;;;;4960064;28;148476;-70
2023/01/05 02:15:04;;;;;;;;;;;9.70;99.90;;;;;;5017904;28;20445;-70
2023/01/05 02:17:41;;;;;;;;;;;9.70;99.90;;;;;;4962939;28;205007;-70
2023/01/05 02:20:25;;;;;;;;;;;9.80;99.90;;;;;;5027113;28;19929;-70
2023/01/05 02:23:05;;;;;;;;;;;9.70;99.90;;;;;;4954036;28;210681;-70
2023/01/05 02:25:50;;;;;;;;;;;9.70;99.90;;;;;;4978113;28;205608;-70
2023/01/05 02:28:34;;;;;;;;;;;9.70;99.90;;;;;;5001089;28;19975;-71
2023/01/05 02:31:11;;;;;;;;;;;9.60;99.90;;;;;;4974206;28;207748;-70
2023/01/05 02:33:42;;;;;;;;;;;9.60;99.90;;;;;;5020636;28;20417;-71
2023/01/05 02:36:08;;;;;;;;;;;9.60;99.90;;;;;;4975889;28;205627;-69
2023/01/05 02:38:43;;;;;;;;;;;9.60;99.90;;;;;;5019424;28;20274;-70
2023/01/05 02:41:12;;;;;;;;;;;9.60;99.90;;;;;;4950631;28;190141;-69
2023/01/05 02:43:38;;;;;;;;;;;9.70;99.90;;;;;;4994724;28;20527;-70
2023/01/05 02:46:04;;;;;;;;;;;9.60;99.90;;;;;;4964995;28;207206;-71
2023/01/05 02:48:30;;;;;;;;;;;9.60;99.90;;;;;;5020673;28;19924;-71
2023/01/05 02:51:00;;;;;;;;;;;9.60;99.90;;;;;;4971421;28;228021;-70
2023/01/05 02:53:26;;;;;;;;;;;9.50;99.90;;;;;;5014150;28;19924;-71
2023/01/05 02:55:55;;;;;;;;;;;9.50;99.90;;;;;;4972934;28;207410;-70
2023/01/05 02:58:24;;;;;;;;;;;9.60;99.90;;;;;;5023159;28;19928;-71
2023/01/05 03:00:54;;;;;;;;;;;9.60;99.90;;;;;;4967074;28;208073;-70
2023/01/05 03:03:24;;;;;;;;;;;9.60;99.90;;;;;;5012729;28;19928;-71
2023/01/05 03:05:52;;;;;;;;;;;9.50;99.90;;;;;;4982068;28;207525;-71
2023/01/05 03:08:22;;;;;;;;;;;9.60;99.90;;;;;;5025296;28;19925;-71
2023/01/05 03:13:43;;;;;;;;;;;9.50;99.90;;;;;;5004386;28;19947;-71
2023/01/05 03:16:10;;;;;;;;;;;9.60;99.90;;;;;;4962709;28;91814;-70
2023/01/05 03:21:22;;;;;;;;;;;9.50;99.90;;;;;;4964159;28;211493;-70
2023/01/05 03:35:31;;;;;;;;;;;9.40;99.90;;;;;;5030801;28;19924;-70
2023/01/05 03:38:16;;;;;;;;;;;9.30;99.90;;;;;;4942870;28;68667;-70
2023/01/05 03:40:43;;;;;;;;;;;9.30;99.90;;;;;;4968498;28;214336;-69
2023/01/05 03:43:09;;;;;;;;;;;9.30;99.90;;;;;;5007663;28;20250;-69
2023/01/05 03:45:37;;;;;;;;;;;9.30;99.90;;;;;;4954374;28;206434;-71
2023/01/05 03:48:03;;;;;;;;;;;9.30;99.90;;;;;;5014109;28;19929;-70
2023/01/05 03:50:29;;;;;;;;;;;9.30;99.90;;;;;;4976170;28;212689;-70
2023/01/05 03:52:55;;;;;;;;;;;9.40;99.90;;;;;;5022658;28;19935;-70
2023/01/05 03:55:21;;;;;;;;;;;9.40;99.90;;;;;;5005756;28;211649;-70
2023/01/05 03:57:47;;;;;;;;;;;9.40;99.90;;;;;;4978960;28;206956;-71
2023/01/05 04:00:13;;;;;;;;;;;9.30;99.90;;;;;;5041439;28;20290;-70
2023/01/05 04:02:39;;;;;;;;;;;9.40;99.90;;;;;;4949906;28;206403;-71
2023/01/05 04:05:05;;;;;;;;;;;9.40;99.90;;;;;;5022260;28;19920;-71
2023/01/05 04:07:31;;;;;;;;;;;9.40;99.90;;;;;;4982344;28;203252;-71
2023/01/05 04:09:57;;;;;;;;;;;9.50;99.90;;;;;;5036826;28;19931;-70
2023/01/05 04:12:23;;;;;;;;;;;9.50;99.90;;;;;;4963462;28;210265;-71
2023/01/05 04:14:49;;;;;;;;;;;9.50;99.90;;;;;;5040782;28;19955;-71
2023/01/05 04:17:15;;;;;;;;;;;9.50;99.90;;;;;;4978859;28;209223;-70
2023/01/05 04:19:40;;;;;;;;;;;9.50;99.90;;;;;;5028804;28;20382;-70
2023/01/05 04:22:06;;;;;;;;;;;9.50;99.90;;;;;;4956303;28;180913;-69
2023/01/05 04:24:32;;;;;;;;;;;9.50;99.90;;;;;;5019805;28;20378;-71
2023/01/05 04:27:00;;;;;;;;;;;9.50;99.90;;;;;;4962254;28;203636;-69
2023/01/05 04:29:26;;;;;;;;;;;9.50;99.90;;;;;;5030526;28;19928;-68
2023/01/05 04:31:52;;;;;;;;;;;9.50;99.90;;;;;;4976308;28;213524;-69
2023/01/05 04:34:20;;;;;;;;;;;9.60;99.90;;;;;;5034118;28;20344;-70
2023/01/05 04:36:48;;;;;;;;;;;9.60;99.90;;;;;;4989387;28;206812;-69
2023/01/05 04:39:14;;;;;;;;;;;9.60;99.90;;;;;;5036856;28;19931;-69
2023/01/05 04:41:40;;;;;;;;;;;9.60;99.90;;;;;;5006830;28;208284;-69
2023/01/05 04:44:06;;;;;;;;;;;9.60;99.90;;;;;;5055071;28;19929;-70
2023/01/05 04:46:32;;;;;;;;;;;9.60;99.90;;;;;;4976711;28;211677;-72
2023/01/05 04:48:58;;;;;;;;;;;9.60;99.90;;;;;;5032815;28;20408;-70
2023/01/05 04:51:24;;;;;;;;;;;9.70;99.90;;;;;;4982169;28;207887;-71
2023/01/05 04:53:49;;;;;;;;;;;9.70;99.90;;;;;;5025618;28;19928;-70
2023/01/05 04:56:16;;;;;;;;;;;9.70;99.90;;;;;;4965475;28;182204;-70
2023/01/05 04:58:42;;;;;;;;;;;9.70;99.90;;;;;;5024204;28;20006;-71
2023/01/05 05:01:07;;;;;;;;;;;9.80;99.90;;;;;;4935422;28;208519;-71
2023/01/05 05:03:33;;;;;;;;;;;9.70;99.90;;;;;;5001745;28;19928;-70
2023/01/05 05:05:59;;;;;;;;;;;9.70;99.90;;;;;;4984253;28;206265;-68
2023/01/05 05:08:25;;;;;;;;;;;9.70;99.90;;;;;;5006581;28;19929;-69
2023/01/05 05:10:51;;;;;;;;;;;9.70;99.90;;;;;;4978947;28;207060;-69
2023/01/05 05:13:17;;;;;;;;;;;9.70;99.90;;;;;;5011304;28;19932;-70
2023/01/05 05:15:43;;;;;;;;;;;9.70;99.90;;;;;;4976285;28;268763;-70
2023/01/05 05:18:09;;;;;;;;;;;9.70;99.90;;;;;;5031823;28;19920;-70
2023/01/05 05:20:36;;;;;;;;;;;9.70;99.90;;;;;;4969793;28;207334;-70
2023/01/05 05:23:02;;;;;;;;;;;9.70;99.90;;;;;;5021121;28;19932;-71
2023/01/05 05:25:28;;;;;;;;;;;9.70;99.90;;;;;;4994704;28;224411;-70
2023/01/05 05:27:54;;;;;;;;;;;9.70;99.90;;;;;;5007582;28;20394;-70
2023/01/05 05:30:20;;;;;;;;;;;9.70;99.90;;;;;;5022985;28;232283;-70
2023/01/05 05:32:46;;;;;;;;;;;9.70;99.90;;;;;;4985633;28;21491;-70
2023/01/05 05:35:12;;;;;;;;;;;9.70;99.90;;;;;;5040037;28;19921;-71
2023/01/05 05:37:38;;;;;;;;;;;9.70;99.90;;;;;;4964548;28;197207;-70
2023/01/05 05:40:04;;;;;;;;;;;9.80;99.90;;;;;;5040191;28;20424;-70
2023/01/05 05:42:30;;;;;;;;;;;9.80;99.90;;;;;;4979536;28;211545;-70
2023/01/05 05:44:56;;;;;;;;;;;9.80;99.90;;;;;;5039462;28;19928;-70
2023/01/05 05:47:21;;;;;;;;;;;9.80;99.90;;;;;;4977396;28;210215;-70
2023/01/05 05:49:47;;;;;;;;;;;9.80;99.90;;;;;;5022075;28;19940;-69
2023/01/05 05:52:13;;;;;;;;;;;9.70;99.90;;;;;;4956301;28;208750;-70
2023/01/05 05:54:39;;;;;;;;;;;9.80;99.90;;;;;;5014919;28;20441;-70
2023/01/05 05:57:05;;;;;;;;;;;9.80;99.90;;;;;;4974771;28;208703;-70
2023/01/05 05:59:31;;;;;;;;;;;9.80;99.90;;;;;;5033068;28;19935;-70
2023/01/05 06:01:57;;;;;;;;;;;9.70;99.90;;;;;;4952558;28;224164;-71
2023/01/05 06:04:23;;;;;;;;;;;9.80;99.90;;;;;;5009717;28;19995;-71
2023/01/05 06:06:49;;;;;;;;;;;9.80;99.90;;;;;;4957065;28;209565;-70
2023/01/05 06:09:14;;;;;;;;;;;9.80;99.90;;;;;;5031916;28;21157;-70
2023/01/05 06:11:40;;;;;;;;;;;9.80;99.90;;;;;;4971585;28;212763;-70
2023/01/05 06:14:07;;;;;;;;;;;9.80;99.90;;;;;;5029761;28;20325;-70
2023/01/05 06:16:33;;;;;;;;;;;9.80;99.90;;;;;;4974837;28;211351;-69
2023/01/05 06:18:59;;;;;;;;;;;9.80;99.90;;;;;;5027948;28;19925;-70
2023/01/05 06:21:25;;;;;;;;;;;9.80;99.90;;;;;;4967830;28;208371;-69
2023/01/05 06:23:50;;;;;;;;;;;9.70;99.90;;;;;;5016110;28;19936;-70
2023/01/05 06:26:16;;;;;;;;;;;9.70;99.90;;;;;;4975733;28;206654;-71
2023/01/05 06:28:42;;;;;;;;;;;9.70;99.90;;;;;;5027809;28;19921;-70
2023/01/05 06:31:08;;;;;;;;;;;9.60;99.90;;;;;;4984102;28;208586;-70
2023/01/05 06:33:34;;;;;;;;;;;9.50;99.90;;;;;;5032953;28;19920;-70
2023/01/05 06:36:00;;;;;;;;;;;9.50;99.90;;;;;;4974713;28;208352;-70
2023/01/05 06:38:26;;;;;;;;;;;9.50;99.90;;;;;;5021500;28;19925;-71
2023/01/05 06:40:53;;;;;;;;;;;9.50;99.90;;;;;;4975040;28;214721;-71
2023/01/05 06:43:19;;;;;;;;;;;9.50;99.90;;;;;;5005685;28;19929;-70
2023/01/05 06:45:45;;;;;;;;;;;9.50;99.90;;;;;;4968292;28;180128;-70
2023/01/05 06:48:11;;;;;;;;;;;9.50;99.90;;;;;;5009979;28;19941;-71
2023/01/05 06:50:37;;;;;;;;;;;9.50;99.90;;;;;;4964627;28;224794;-70
2023/01/05 06:53:03;;;;;;;;;;;9.50;99.90;;;;;;5017787;28;20313;-70
2023/01/05 06:55:29;;;;;;;;;;;9.40;99.90;;;;;;4984798;28;210229;-70
2023/01/05 06:57:56;;;;;;;;;;;9.40;99.90;;;;;;5001628;28;19928;-70
2023/01/05 07:00:22;;;;;;;;;;;9.40;99.90;;;;;;5006991;28;212890;-70
2023/01/05 07:02:48;;;;;;;;;;;9.40;99.90;;;;;;4992308;28;19928;-71
2023/01/05 07:05:14;;;;;;;;;;;9.40;99.90;;;;;;5019564;28;19978;-70
2023/01/05 07:07:40;;;;;;;;;;;9.40;99.90;;;;;;4934795;28;209893;-71
2023/01/05 07:10:06;;;;;;;;;;;9.40;99.90;;;;;;5035680;28;19921;-69
2023/01/05 07:12:32;;;;;;;;;;;9.40;99.90;;;;;;4948270;28;209550;-69
2023/01/05 07:14:58;;;;;;;;;;;9.40;99.90;;;;;;5035082;28;19924;-71
2023/01/05 07:17:24;;;;;;;;;;;9.40;99.90;;;;;;4953534;28;250360;-70
2023/01/05 07:19:50;;;;;;;;;;;9.50;99.90;;;;;;5042890;28;19925;-70
2023/01/05 07:22:16;;;;;;;;;;;9.40;99.90;;;;;;4974531;28;207551;-70
2023/01/05 07:24:42;;;;;;;;;;;9.50;99.90;;;;;;5033294;28;19947;-70
2023/01/05 07:27:08;;;;;;;;;;;9.50;99.90;;;;;;4952754;28;222948;-69
2023/01/05 07:29:34;;;;;;;;;;;9.50;99.90;;;;;;5026647;28;19925;-70
2023/01/05 07:31:59;;;;;;;;;;;9.40;99.90;;;;;;4975087;28;217806;-69
2023/01/05 07:34:25;;;;;;;;;;;9.40;99.90;;;;;;5019146;28;19925;-70
2023/01/05 07:36:51;;;;;;;;;;;9.40;99.90;;;;;;4965269;28;69694;-71
2023/01/05 07:39:18;;;;;;;;;;;9.50;99.90;;;;;;5032285;28;19970;-69
2023/01/05 07:41:44;;;;;;;;;;;9.50;99.90;;;;;;4962915;28;209695;-70
2023/01/05 07:44:10;;;;;;;;;;;9.50;99.90;;;;;;5024290;28;19940;-70
2023/01/05 07:46:36;;;;;;;;;;;9.40;99.90;;;;;;4961899;28;138935;-69
2023/01/05 07:49:03;;;;;;;;;;;9.40;99.90;;;;;;5028155;28;19931;-68
2023/01/05 07:51:29;;;;;;;;;;;9.50;99.90;;;;;;4974739;28;205302;-69
2023/01/05 07:53:55;;;;;;;;;;;9.50;99.90;;;;;;5031168;28;19921;-69
2023/01/05 07:56:21;;;;;;;;;;;9.50;99.90;;;;;;4960983;28;209593;-70
2023/01/05 07:58:47;;;;;;;;;;;9.50;99.90;;;;;;5019155;28;19921;-69
2023/01/05 08:01:14;;;;;;;;;;;9.50;99.90;;;;;;4968554;28;207097;-69
2023/01/05 08:03:40;;;;;;;;;;;9.50;99.90;;;;;;5014827;28;19925;-70
2023/01/05 08:06:17;;;;;;;;;;;9.50;99.90;;;;;;4975239;28;207975;-70
2023/01/05 08:08:43;;;;;;;;;;;9.50;99.90;;;;;;5028439;28;20306;-72
2023/01/05 08:11:10;;;;;;;;;;;9.50;99.90;;;;;;4982052;28;203479;-71
2023/01/05 08:16:20;;;;;;;;;;;9.50;99.90;;;;;;4967598;28;66856;-73
2023/01/05 08:18:46;;;;;;;;;;;9.50;99.90;;;;;;5019460;28;19928;-73
2023/01/05 08:21:13;;;;;;;;;;;9.50;99.90;;;;;;4980862;28;29479;-73
2023/01/05 08:23:39;;;;;;;;;;;9.50;99.90;;;;;;5000462;28;19932;-74
2023/01/05 08:26:07;;;;;;;;;;;9.50;99.90;;;;;;4982174;28;216031;-75
2023/01/05 08:28:36;;;;;;;;;;;9.50;99.90;;;;;;5031501;28;19925;-73
2023/01/05 08:31:03;;;;;;;;;;;9.50;99.90;;;;;;4963358;28;209894;-73
2023/01/05 08:33:29;;;;;;;;;;;9.50;99.90;;;;;;4990844;28;20417;-72
2023/01/05 08:35:55;;;;;;;;;;;9.50;99.90;;;;;;5040453;28;19925;-72
2023/01/05 08:38:21;;;;;;;;;;;9.50;99.90;;;;;;4993193;28;212391;-72
2023/01/05 08:40:47;;;;;;;;;;;9.50;99.90;;;;;;5025613;28;19928;-72
2023/01/05 08:43:13;;;;;;;;;;;9.50;99.90;;;;;;5035276;28;19928;-73
2023/01/05 08:45:40;;;;;;;;;;;9.50;99.90;;;;;;5024878;28;20114;-73
2023/01/05 08:48:06;;;;;;;;;;;9.50;99.90;;;;;;5030829;28;19939;-73
2023/01/05 08:50:32;;;;;;;;;;;9.50;99.90;;;;;;5009853;28;222323;-72
2023/01/05 08:52:58;;;;;;;;;;;9.60;99.90;;;;;;5049803;28;19967;-75
2023/01/05 08:55:23;;;;;;;;;;;9.60;99.90;;;;;;4994766;28;210008;-75
2023/01/05 08:57:49;;;;;;;;;;;9.60;99.90;;;;;;5036221;28;19932;-70
2023/01/05 09:00:16;;;;;;;;;;;9.60;99.90;;;;;;4966404;28;206645;-75
2023/01/05 09:02:44;;;;;;;;;;;9.60;99.90;;;;;;5034575;28;19924;-71
2023/01/05 09:05:10;;;;;;;;;;;9.60;99.90;;;;;;4953909;28;240769;-72
2023/01/05 09:07:36;;;;;;;;;;;9.60;99.90;;;;;;5025385;28;19925;-73
2023/01/05 09:10:03;;;;;;;;;;;9.60;99.90;;;;;;4978071;28;208763;-72
2023/01/05 09:12:28;;;;;;;;;;;9.60;99.90;;;;;;5009704;28;19925;-72
2023/01/05 09:14:54;;;;;;;;;;;9.60;99.90;;;;;;4975821;28;213677;-73
2023/01/05 09:17:20;;;;;;;;;;;9.60;99.90;;;;;;5025001;28;19987;-72
2023/01/05 09:19:46;;;;;;;;;;;9.60;99.90;;;;;;4967059;28;207082;-73
2023/01/05 09:22:12;;;;;;;;;;;9.60;99.90;;;;;;5017408;28;19956;-73
2023/01/05 09:24:38;;;;;;;;;;;9.60;99.90;;;;;;4961964;28;202080;-73
2023/01/05 09:27:06;;;;;;;;;;;9.60;99.90;;;;;;5013701;28;19929;-71
2023/01/05 09:29:32;;;;;;;;;;;9.60;99.90;;;;;;4975271;28;82693;-72
2023/01/05 09:31:58;;;;;;;;;;;9.70;99.90;;;;;;5037807;28;19932;-72
2023/01/05 09:34:24;;;;;;;;;;;9.70;99.90;;;;;;4978040;28;120408;-72
2023/01/05 09:36:50;;;;;;;;;;;9.70;99.90;;;;;;5031037;28;19925;-74
2023/01/05 09:39:16;;;;;;;;;;;9.70;99.90;;;;;;4975719;28;203448;-72
2023/01/05 09:41:42;;;;;;;;;;;9.70;99.90;;;;;;5013291;28;20669;-72
2023/01/05 09:44:25;;;;;;;;;;;9.70;99.90;;;;;;4971658;28;215446;-72
2023/01/05 09:46:51;;;;;;;;;;;9.70;99.90;;;;;;4994594;28;19929;-72
2023/01/05 09:49:20;;;;;;;;;;;9.70;99.90;;;;;;4960486;28;208689;-72
2023/01/05 09:51:54;;;;;;;;;;;9.70;99.90;;;;;;5022605;28;19924;-72
2023/01/05 09:54:21;;;;;;;;;;;9.70;99.90;;;;;;4978462;28;215316;-73
2023/01/05 09:56:48;;;;;;;;;;;9.70;99.90;;;;;;5008404;28;20461;-73
2023/01/05 09:59:25;;;;;;;;;;;9.80;99.90;;;;;;4943289;28;208243;-73
2023/01/05 10:01:52;;;;;;;;;;;9.80;99.90;;;;;;4994261;28;19936;-73
2023/01/05 10:04:21;;;;;;;;;;;9.80;99.90;;;;;;4967648;28;207694;-72
2023/01/05 10:06:49;;;;;;;;;;;9.80;99.90;;;;;;5004439;28;19933;-76
2023/01/05 10:09:23;;;;;;;;;;;9.80;99.90;;;;;;4981993;28;209907;-73
2023/01/05 10:15:05;;;;;;;;;;;9.80;99.90;;;;;;4966109;28;155129;-73
2023/01/05 10:17:32;;;;;;;;;;;9.90;99.90;;;;;;5016782;28;19925;-72
2023/01/05 10:19:59;;;;;;;;;;;9.90;99.90;;;;;;4969970;28;212048;-73
2023/01/05 10:22:34;;;;;;;;;;;9.90;99.90;;;;;;5025397;28;20701;-74
2023/01/05 10:25:06;;;;;;;;;;;9.90;99.90;;;;;;4970418;28;84244;-75
2023/01/05 10:27:45;;;;;;;;;;;10.00;99.90;;;;;;5026333;28;19933;-73
2023/01/05 10:30:21;;;;;;;;;;;10.00;99.90;;;;;;4962018;28;207613;-73
2023/01/05 10:33:10;;;;;;;;;;;10.00;99.90;;;;;;5001837;28;19929;-75
2023/01/05 10:35:54;;;;;;;;;;;10.00;99.90;;;;;;4949027;28;177279;-73
2023/01/05 10:38:23;;;;;;;;;;;10.00;99.90;;;;;;5028641;28;19921;-73
2023/01/05 10:41:01;;;;;;;;;;;10.00;99.90;;;;;;4933517;28;210030;-74
2023/01/05 10:43:46;;;;;;;;;;;10.00;99.90;;;;;;5029971;28;20353;-73
2023/01/05 10:46:13;;;;;;;;;;;10.10;99.90;;;;;;4956554;28;72175;-72
2023/01/05 10:48:39;;;;;;;;;;;10.10;99.90;;;;;;5032921;28;20422;-72
2023/01/05 10:51:06;;;;;;;;;;;10.10;99.90;;;;;;4950487;28;209527;-73
2023/01/05 10:53:34;;;;;;;;;;;10.10;99.90;;;;;;5030612;28;19929;-74
2023/01/05 10:56:14;;;;;;;;;;;10.10;99.90;;;;;;4961576;28;84745;-74
2023/01/05 10:58:41;;;;;;;;;;;10.10;99.90;;;;;;5020301;28;19956;-75
2023/01/05 11:01:16;;;;;;;;;;;10.10;99.90;;;;;;4951730;28;206884;-76
2023/01/05 11:03:44;;;;;;;;;;;10.10;99.90;;;;;;5036495;28;20283;-74
2023/01/05 11:06:21;;;;;;;;;;;10.00;99.90;;;;;;4951754;28;201292;-76
2023/01/05 11:08:47;;;;;;;;;;;10.00;99.90;;;;;;5012730;28;19933;-74
2023/01/05 11:11:24;;;;;;;;;;;10.10;99.90;;;;;;4988811;28;206957;-76
2023/01/05 11:13:55;;;;;;;;;;;10.10;99.90;;;;;;5038100;28;19925;-77
2023/01/05 11:16:22;;;;;;;;;;;10.20;99.90;;;;;;4949375;28;205250;-73
2023/01/05 11:18:51;;;;;;;;;;;10.10;99.90;;;;;;5015664;28;19921;-72
2023/01/05 11:21:22;;;;;;;;;;;10.10;99.90;;;;;;4957258;28;226202;-73
2023/01/05 11:23:48;;;;;;;;;;;10.10;99.90;;;;;;5029359;28;19921;-74
2023/01/05 11:26:17;;;;;;;;;;;10.20;99.90;;;;;;4948365;28;36819;-73
2023/01/05 11:28:56;;;;;;;;;;;10.20;99.90;;;;;;5031531;28;19929;-73
2023/01/05 11:31:24;;;;;;;;;;;10.20;99.90;;;;;;4948046;28;34810;-74
2023/01/05 11:33:57;;;;;;;;;;;10.30;99.90;;;;;;5019849;28;19925;-73
2023/01/05 11:36:23;;;;;;;;;;;10.30;99.90;;;;;;4950390;28;204971;-76
2023/01/05 11:38:52;;;;;;;;;;;10.20;99.90;;;;;;5031294;28;19960;-74
2023/01/05 11:41:20;;;;;;;;;;;10.20;99.90;;;;;;4953109;28;206962;-73
2023/01/05 11:43:46;;;;;;;;;;;10.20;99.90;;;;;;5028483;28;19935;-74
2023/01/05 11:46:14;;;;;;;;;;;10.20;99.90;;;;;;4965561;28;209740;-74
2023/01/05 11:48:49;;;;;;;;;;;10.20;99.90;;;;;;5019207;28;20318;-73
2023/01/05 11:51:47;;;;;;;;;;;10.30;99.90;;;;;;4974106;28;188990;-73
2023/01/05 11:54:33;;;;;;;;;;;10.30;99.90;;;;;;4965118;28;207947;-73
2023/01/05 11:57:10;;;;;;;;;;;10.30;99.90;;;;;;5026833;28;19928;-73
2023/01/05 11:59:36;;;;;;;;;;;10.30;99.90;;;;;;4972060;28;61449;-72
2023/01/05 12:02:20;;;;;;;;;;;10.30;99.90;;;;;;5012618;28;19983;-74
2023/01/05 12:05:04;;;;;;;;;;;10.30;99.90;;;;;;4957958;28;121392;-75
2023/01/05 12:07:34;;;;;;;;;;;10.30;99.90;;;;;;5009644;28;19933;-74
2023/01/05 12:10:16;;;;;;;;;;;10.20;99.90;;;;;;4976852;28;212555;-75
2023/01/05 12:12:45;;;;;;;;;;;10.20;99.90;;;;;;5028441;28;19936;-73
2023/01/05 12:15:22;;;;;;;;;;;10.20;99.90;;;;;;4971877;28;214114;-74
2023/01/05 12:18:14;;;;;;;;;;;10.20;99.90;;;;;;5018239;28;19925;-74
2023/01/05 12:20:48;;;;;;;;;;;10.20;99.90;;;;;;4963877;28;206776;-74
2023/01/05 12:23:26;;;;;;;;;;;10.30;99.90;;;;;;5036678;28;19925;-72
2023/01/05 12:25:55;;;;;;;;;;;10.30;99.90;;;;;;4950674;28;215409;-73
2023/01/05 12:28:57;;;;;;;;;;;10.30;99.90;;;;;;5030260;28;20306;-73
2023/01/05 12:31:28;;;;;;;;;;;10.30;99.90;;;;;;4896914;28;206459;-73
2023/01/05 12:34:12;;;;;;;;;;;10.30;99.90;;;;;;4954386;28;63852;-72
2023/01/05 12:37:04;;;;;;;;;;;10.30;99.90;;;;;;4897752;28;20611;-73
2023/01/05 12:39:48;;;;;;;;;;;10.30;99.90;;;;;;4912317;28;19926;-73
2023/01/05 12:42:32;;;;;;;;;;;10.30;99.90;;;;;;4962786;28;19937;-73
2023/01/05 12:45:17;;;;;;;;;;;10.30;99.90;;;;;;4898001;28;207523;-73
2023/01/05 12:47:43;;;;;;;;;;;10.30;99.90;;;;;;4940230;28;19934;-75
2023/01/05 12:50:11;;;;;;;;;;;10.30;99.90;;;;;;4913463;28;164664;-75
2023/01/05 12:52:43;;;;;;;;;;;10.30;99.90;;;;;;4962579;28;19955;-75
2023/01/05 12:55:23;;;;;;;;;;;10.30;99.90;;;;;;4907960;28;73377;-73
2023/01/05 12:57:56;;;;;;;;;;;10.20;99.90;;;;;;4961716;28;20746;-73
2023/01/05 13:00:24;;;;;;;;;;;10.20;99.90;;;;;;4909488;28;146856;-72
2023/01/05 13:03:02;;;;;;;;;;;10.20;99.90;;;;;;4951649;28;19938;-72
2023/01/05 13:05:35;;;;;;;;;;;10.10;99.90;;;;;;4929721;28;209669;-72
2023/01/05 13:08:05;;;;;;;;;;;10.10;99.90;;;;;;5033601;28;19929;-72
2023/01/05 13:10:37;;;;;;;;;;;10.10;99.90;;;;;;4967239;28;213067;-73
2023/01/05 13:13:07;;;;;;;;;;;10.10;99.90;;;;;;4993124;28;19924;-75
2023/01/05 13:15:40;;;;;;;;;;;10.10;99.90;;;;;;4941794;28;215318;-72
2023/01/05 13:18:10;;;;;;;;;;;10.10;99.90;;;;;;5028196;28;19929;-72
2023/01/05 13:20:47;;;;;;;;;;;10.00;99.90;;;;;;4972826;28;207610;-72
2023/01/05 13:23:13;;;;;;;;;;;10.00;99.90;;;;;;5031957;28;20381;-72
2023/01/05 13:25:50;;;;;;;;;;;10.00;99.90;;;;;;4962831;28;207289;-73
2023/01/05 13:28:21;;;;;;;;;;;10.00;99.90;;;;;;5020925;28;20321;-72
2023/01/05 13:31:07;;;;;;;;;;;10.00;99.90;;;;;;4969074;28;207065;-71
2023/01/05 13:33:42;;;;;;;;;;;10.00;99.90;;;;;;5021737;28;19929;-72
2023/01/05 13:36:08;;;;;;;;;;;10.10;99.90;;;;;;4952031;28;207986;-71
2023/01/05 13:38:52;;;;;;;;;;;10.10;99.90;;;;;;5015107;28;19952;-75
2023/01/05 13:41:37;;;;;;;;;;;10.10;99.90;;;;;;4956563;28;148424;-71
2023/01/05 13:44:03;;;;;;;;;;;10.10;99.90;;;;;;4970251;28;208366;-72
2023/01/05 13:46:44;;;;;;;;;;;10.10;99.90;;;;;;5012145;28;20322;-75
2023/01/05 13:49:14;;;;;;;;;;;10.10;99.90;;;;;;4956096;28;213774;-73
2023/01/05 13:51:46;;;;;;;;;;;10.20;99.90;;;;;;5004452;28;19936;-74
2023/01/05 13:54:16;;;;;;;;;;;10.20;99.90;;;;;;4969035;28;207572;-73
2023/01/05 13:56:45;;;;;;;;;;;10.20;99.90;;;;;;4997318;28;20724;-76
2023/01/05 13:59:31;;;;;;;;;;;10.20;99.90;;;;;;4975797;28;236459;-73
2023/01/05 14:01:59;;;;;;;;;;;10.20;99.90;;;;;;5021914;28;19943;-73
2023/01/05 14:04:26;;;;;;;;;;;10.20;99.90;;;;;;4980388;28;209989;-73
2023/01/05 14:06:54;;;;;;;;;;;10.10;99.90;;;;;;5023722;28;19929;-75
2023/01/05 14:09:26;;;;;;;;;;;10.10;99.90;;;;;;4965694;28;211218;-72
2023/01/05 14:12:07;;;;;;;;;;;10.20;99.90;;;;;;5013377;28;19925;-78
2023/01/05 14:14:52;;;;;;;;;;;10.10;99.90;;;;;;4980395;28;207429;-74
2023/01/05 14:17:37;;;;;;;;;;;10.10;99.90;;;;;;5027444;28;19925;-73
2023/01/05 14:20:06;;;;;;;;;;;10.10;99.90;;;;;;4979040;28;207884;-78
2023/01/05 14:22:34;;;;;;;;;;;10.10;99.90;;;;;;5034674;28;19932;-73
2023/01/05 14:25:18;;;;;;;;;;;10.10;99.90;;;;;;4966755;28;209130;-76
2023/01/05 14:28:03;;;;;;;;;;;10.10;99.90;;;;;;5027499;28;19932;-72
2023/01/05 14:30:30;;;;;;;;;;;10.10;99.90;;;;;;4989684;28;208362;-73
2023/01/05 14:33:02;;;;;;;;;;;10.10;99.90;;;;;;5046750;28;19925;-73
2023/01/05 14:35:33;;;;;;;;;;;10.10;99.90;;;;;;4984657;28;223969;-76
2023/01/05 14:38:19;;;;;;;;;;;10.10;99.90;;;;;;5035676;28;19937;-75
2023/01/05 14:40:51;;;;;;;;;;;10.10;99.90;;;;;;4944265;28;194104;-73
2023/01/05 14:43:31;;;;;;;;;;;10.10;99.90;;;;;;5016158;28;19937;-75
2023/01/05 14:46:08;;;;;;;;;;;10.20;99.90;;;;;;4959445;28;226212;-71
2023/01/05 14:48:42;;;;;;;;;;;10.20;99.90;;;;;;5015959;28;20433;-72
2023/01/05 14:51:14;;;;;;;;;;;10.30;99.90;;;;;;4970444;28;214235;-72
2023/01/05 14:53:42;;;;;;;;;;;10.30;99.90;;;;;;5034947;28;20613;-76
2023/01/05 14:56:08;;;;;;;;;;;10.20;99.90;;;;;;4951587;28;209029;-74
2023/01/05 14:58:36;;;;;;;;;;;10.20;99.90;;;;;;5030074;28;19979;-72
2023/01/05 15:01:15;;;;;;;;;;;10.10;99.90;;;;;;4953106;28;210395;-76
2023/01/05 15:03:52;;;;;;;;;;;10.10;99.90;;;;;;5032821;28;19952;-72
2023/01/05 15:06:28;;;;;;;;;;;10.10;99.90;;;;;;4947296;28;214766;-73
2023/01/05 15:09:15;;;;;;;;;;;10.00;99.90;;;;;;5016020;28;219204;-73
2023/01/05 15:11:59;;;;;;;;;;;10.00;99.90;;;;;;4944445;28;208904;-72